Dauntless Aviation
Airports North America Canada
CYLW
YLW

Kelowna International Airport

Kelowna, CANADA

Airport Info
Suggest Updated Information for this Airport

Location

Latitude / Longitude: 49°57'21"N / 119°22'40"W
  49°57.366'N / 119°22.68'W
  49.9561 / -119.3780

Nearby radio navigation aids

EX RUTLAND NDB. 335.5° 1.0nm from EX to field.
LW KELOWNA NDB. 147.1° 6.5nm from LW to field.

Runway Information

Runway 16 /34

Dimensions: 7300 x 200 ft.
Surface: ASP
 
Runway 16
Runway 34
Latitude: 49.966 49.946278
Longitude: -119.378961 -119.376461
Elevation: 1409 ft. 1409 ft.
Runway true heading: 166.6 346.6
 

Instrument Procedures

  Airport Diagram
  Parking Areas (Apron 1)
  Parking Areas (Apron 3)
Satellite photo at:
Airport distance calculator
From:
Weather Reports

METAR

CYLW

CYLW 230800Z AUTO 03003KT 9SM CLR 15/10 A2991 RMK TS/LTNG TEMPO UNAVBL SLP124 DENSITY ALT 1700FT
CWJV
17.4nm N
CWJV 230800Z AUTO 07002KT 19/09 RMK AO1 SLP119 T01850090 53012
CWUS
25.6nm S
CWUS 230800Z AUTO 27003KT 20/06 RMK AO1 SLP120 T02010063 53012
CYYF
30.4nm S
CYYF 230800Z 00000KT 15SM FEW100 18/08 A2989 RMK FU2 SLP119 DENSITY ALT 1800FT

TAF

CYLW
TAF CYLW 230638Z 2307/2319 VRB02KT P6SM SKC RMK FCST BASED ON AUTO OBS. NXT FCST BY 231300Z
CYYF
30.4nm S
TAF CYYF 230638Z 2307/2319 VRB03KT P6SM SKC RMK NXT FCST BY 231300Z
Safelog

 

Dauntless Aviation

© 2007-2017 Dauntless Aviation, all rights reserved
Information provided via PilotNav comes from a variety of official and unofficial data sources. As errors are possible, do not use PilotNav for primary flight planning purposes. Verify any information that you receive via PilotNav with current and canonical charts and other official documents. The material in this database is subject to database copyrights held by Dauntless Aviation and may not be copied without the express permission of Dauntless Aviation - licenses for use of part of all of this data are available for purchase; enquire via the Dauntless Aviation helpdesk. A number of mechanisms and markers exist in the database to protect against and identify infringement / copyright. Automated queries against this website are stictly prohibited, and all activity is logged and analyzed.